sensor_id;sensor_type;location;lat;lon;timestamp;pressure;altitude;pressure_sealevel;temperature;humidity
10518;BME280;5307;42.548;22.968;2022-12-11T00:02:23;91936.22;;;12.61;100.00
10518;BME280;5307;42.548;22.968;2022-12-11T00:10:07;91936.03;;;12.47;100.00
10518;BME280;5307;42.548;22.968;2022-12-11T00:12:34;91926.28;;;12.52;100.00
10518;BME280;5307;42.548;22.968;2022-12-11T00:15:00;91940.03;;;12.46;100.00
10518;BME280;5307;42.548;22.968;2022-12-11T00:17:29;91938.25;;;12.55;100.00
10518;BME280;5307;42.548;22.968;2022-12-11T00:19:55;91945.22;;;12.56;100.00
10518;BME280;5307;42.548;22.968;2022-12-11T00:22:22;91942.78;;;12.46;100.00
10518;BME280;5307;42.548;22.968;2022-12-11T00:24:50;91934.56;;;12.46;100.00
10518;BME280;5307;42.548;22.968;2022-12-11T00:27:17;91932.56;;;12.47;100.00
10518;BME280;5307;42.548;22.968;2022-12-11T00:29:43;91932.97;;;12.62;100.00
10518;BME280;5307;42.548;22.968;2022-12-11T00:32:10;91914.88;;;12.54;100.00
10518;BME280;5307;42.548;22.968;2022-12-11T00:34:39;91920.56;;;12.56;100.00
10518;BME280;5307;42.548;22.968;2022-12-11T00:37:06;91912.88;;;12.48;100.00
10518;BME280;5307;42.548;22.968;2022-12-11T00:39:33;91926.81;;;12.51;100.00
10518;BME280;5307;42.548;22.968;2022-12-11T00:42:00;91931.78;;;12.52;100.00
10518;BME280;5307;42.548;22.968;2022-12-11T00:44:27;91940.78;;;12.47;100.00
10518;BME280;5307;42.548;22.968;2022-12-11T00:46:54;91956.97;;;12.45;100.00
10518;BME280;5307;42.548;22.968;2022-12-11T00:49:21;91952.50;;;12.36;100.00
10518;BME280;5307;42.548;22.968;2022-12-11T00:51:49;91952.31;;;12.29;100.00
10518;BME280;5307;42.548;22.968;2022-12-11T00:54:16;91955.56;;;12.27;100.00
10518;BME280;5307;42.548;22.968;2022-12-11T00:56:42;91971.47;;;12.23;100.00
10518;BME280;5307;42.548;22.968;2022-12-11T00:59:09;91970.25;;;12.18;100.00
10518;BME280;5307;42.548;22.968;2022-12-11T01:01:41;91947.13;;;12.19;100.00
10518;BME280;5307;42.548;22.968;2022-12-11T01:04:08;91931.44;;;12.20;100.00
10518;BME280;5307;42.548;22.968;2022-12-11T01:06:35;91930.97;;;12.16;100.00
10518;BME280;5307;42.548;22.968;2022-12-11T01:09:04;91904.41;;;12.11;100.00
10518;BME280;5307;42.548;22.968;2022-12-11T01:11:48;91904.59;;;12.18;100.00
10518;BME280;5307;42.548;22.968;2022-12-11T01:14:15;91899.38;;;12.15;100.00
10518;BME280;5307;42.548;22.968;2022-12-11T01:16:41;91907.09;;;12.16;100.00
10518;BME280;5307;42.548;22.968;2022-12-11T01:19:08;91914.53;;;12.22;100.00
10518;BME280;5307;42.548;22.968;2022-12-11T01:21:35;91912.00;;;12.29;100.00
10518;BME280;5307;42.548;22.968;2022-12-11T01:24:04;91910.53;;;12.23;100.00
10518;BME280;5307;42.548;22.968;2022-12-11T01:26:31;91926.22;;;12.22;100.00
10518;BME280;5307;42.548;22.968;2022-12-11T01:28:57;91925.47;;;12.27;100.00
10518;BME280;5307;42.548;22.968;2022-12-11T01:31:24;91920.72;;;12.22;100.00
10518;BME280;5307;42.548;22.968;2022-12-11T01:33:53;91910.53;;;12.28;100.00
10518;BME280;5307;42.548;22.968;2022-12-11T01:36:20;91905.59;;;12.15;100.00
10518;BME280;5307;42.548;22.968;2022-12-11T01:38:48;91899.91;;;12.13;100.00
10518;BME280;5307;42.548;22.968;2022-12-11T01:41:16;91893.91;;;12.15;100.00
10518;BME280;5307;42.548;22.968;2022-12-11T01:43:58;91899.34;;;12.26;100.00
10518;BME280;5307;42.548;22.968;2022-12-11T01:46:26;91900.31;;;12.23;100.00
10518;BME280;5307;42.548;22.968;2022-12-11T01:48:53;91904.31;;;12.22;100.00
10518;BME280;5307;42.548;22.968;2022-12-11T01:51:21;91911.03;;;12.21;100.00
10518;BME280;5307;42.548;22.968;2022-12-11T01:53:52;91916.81;;;12.12;100.00
10518;BME280;5307;42.548;22.968;2022-12-11T01:56:20;91921.78;;;12.08;100.00
10518;BME280;5307;42.548;22.968;2022-12-11T01:58:51;91916.59;;;12.04;100.00
10518;BME280;5307;42.548;22.968;2022-12-11T02:01:24;91900.22;;;11.99;100.00
10518;BME280;5307;42.548;22.968;2022-12-11T02:03:54;91896.00;;;11.98;100.00
10518;BME280;5307;42.548;22.968;2022-12-11T02:06:35;91898.91;;;12.11;100.00
10518;BME280;5307;42.548;22.968;2022-12-11T02:09:04;91906.84;;;12.14;100.00
10518;BME280;5307;42.548;22.968;2022-12-11T02:11:42;91907.59;;;12.15;100.00
10518;BME280;5307;42.548;22.968;2022-12-11T02:14:18;91902.78;;;12.32;100.00
10518;BME280;5307;42.548;22.968;2022-12-11T02:16:52;91909.22;;;12.40;100.00
10518;BME280;5307;42.548;22.968;2022-12-11T02:19:33;91899.72;;;12.47;100.00
10518;BME280;5307;42.548;22.968;2022-12-11T02:22:12;91883.50;;;12.49;98.97
10518;BME280;5307;42.548;22.968;2022-12-11T02:24:53;91874.56;;;12.48;98.41
10518;BME280;5307;42.548;22.968;2022-12-11T02:27:31;91863.75;;;12.26;100.00
10518;BME280;5307;42.548;22.968;2022-12-11T02:30:04;91867.81;;;12.14;100.00
10518;BME280;5307;42.548;22.968;2022-12-11T02:32:36;91872.53;;;12.08;100.00
10518;BME280;5307;42.548;22.968;2022-12-11T02:35:09;91879.03;;;12.05;100.00
10518;BME280;5307;42.548;22.968;2022-12-11T02:37:41;91898.38;;;12.18;100.00
10518;BME280;5307;42.548;22.968;2022-12-11T02:40:12;91911.81;;;12.16;100.00
10518;BME280;5307;42.548;22.968;2022-12-11T02:42:42;91897.34;;;12.21;100.00
10518;BME280;5307;42.548;22.968;2022-12-11T02:45:11;91912.00;;;12.29;100.00
10518;BME280;5307;42.548;22.968;2022-12-11T02:47:40;91898.84;;;12.22;100.00
10518;BME280;5307;42.548;22.968;2022-12-11T02:50:11;91902.38;;;12.17;100.00
10518;BME280;5307;42.548;22.968;2022-12-11T02:52:40;91903.88;;;12.12;100.00
10518;BME280;5307;42.548;22.968;2022-12-11T02:55:09;91903.41;;;12.03;100.00
10518;BME280;5307;42.548;22.968;2022-12-11T02:57:41;91896.19;;;12.05;100.00
10518;BME280;5307;42.548;22.968;2022-12-11T03:00:11;91905.16;;;12.06;100.00
10518;BME280;5307;42.548;22.968;2022-12-11T03:02:39;91910.63;;;12.06;100.00
10518;BME280;5307;42.548;22.968;2022-12-11T03:05:08;91908.91;;;12.03;100.00
10518;BME280;5307;42.548;22.968;2022-12-11T03:07:37;91912.09;;;12.07;100.00
10518;BME280;5307;42.548;22.968;2022-12-11T03:10:06;91909.63;;;12.03;100.00
10518;BME280;5307;42.548;22.968;2022-12-11T03:12:36;91910.81;;;12.19;100.00
10518;BME280;5307;42.548;22.968;2022-12-11T03:15:06;91904.13;;;12.14;100.00
10518;BME280;5307;42.548;22.968;2022-12-11T03:17:43;91903.38;;;12.14;100.00
10518;BME280;5307;42.548;22.968;2022-12-11T03:20:16;91908.16;;;12.02;100.00
10518;BME280;5307;42.548;22.968;2022-12-11T03:22:50;91918.34;;;12.02;100.00
10518;BME280;5307;42.548;22.968;2022-12-11T03:25:23;91927.06;;;12.00;100.00
10518;BME280;5307;42.548;22.968;2022-12-11T03:27:54;91920.81;;;12.05;100.00
10518;BME280;5307;42.548;22.968;2022-12-11T03:30:23;91937.72;;;12.04;100.00
10518;BME280;5307;42.548;22.968;2022-12-11T03:32:55;91934.00;;;12.07;100.00
10518;BME280;5307;42.548;22.968;2022-12-11T03:35:25;91945.44;;;12.11;100.00
10518;BME280;5307;42.548;22.968;2022-12-11T03:37:55;91941.28;;;11.87;100.00
10518;BME280;5307;42.548;22.968;2022-12-11T03:40:25;91949.19;;;12.02;100.00
10518;BME280;5307;42.548;22.968;2022-12-11T03:42:54;91936.00;;;11.95;100.00
10518;BME280;5307;42.548;22.968;2022-12-11T03:45:24;91953.66;;;11.94;100.00
10518;BME280;5307;42.548;22.968;2022-12-11T03:47:54;91944.97;;;11.96;100.00
10518;BME280;5307;42.548;22.968;2022-12-11T03:50:23;91959.88;;;12.00;100.00
10518;BME280;5307;42.548;22.968;2022-12-11T03:52:53;91953.91;;;11.96;100.00
10518;BME280;5307;42.548;22.968;2022-12-11T03:55:21;91955.44;;;11.92;100.00
10518;BME280;5307;42.548;22.968;2022-12-11T03:57:49;91951.22;;;11.91;100.00
10518;BME280;5307;42.548;22.968;2022-12-11T04:00:18;91944.72;;;11.94;100.00
10518;BME280;5307;42.548;22.968;2022-12-11T04:02:45;91946.94;;;11.95;100.00
10518;BME280;5307;42.548;22.968;2022-12-11T04:05:34;91954.19;;;11.93;100.00
10518;BME280;5307;42.548;22.968;2022-12-11T04:08:01;91958.16;;;11.92;100.00
10518;BME280;5307;42.548;22.968;2022-12-11T04:10:28;91961.91;;;11.88;100.00
10518;BME280;5307;42.548;22.968;2022-12-11T04:12:55;91963.66;;;11.86;100.00
10518;BME280;5307;42.548;22.968;2022-12-11T04:15:21;91953.69;;;11.88;100.00
10518;BME280;5307;42.548;22.968;2022-12-11T04:17:47;91958.69;;;11.84;100.00
10518;BME280;5307;42.548;22.968;2022-12-11T04:20:31;91934.59;;;11.83;100.00
10518;BME280;5307;42.548;22.968;2022-12-11T04:23:18;91932.34;;;11.70;100.00
10518;BME280;5307;42.548;22.968;2022-12-11T04:26:04;91932.09;;;11.74;100.00
10518;BME280;5307;42.548;22.968;2022-12-11T04:28:39;91947.50;;;11.71;100.00
10518;BME280;5307;42.548;22.968;2022-12-11T04:31:10;91942.78;;;11.66;100.00
10518;BME280;5307;42.548;22.968;2022-12-11T04:33:37;91943.28;;;11.70;100.00
10518;BME280;5307;42.548;22.968;2022-12-11T04:36:05;91938.06;;;11.61;100.00
10518;BME280;5307;42.548;22.968;2022-12-11T04:38:34;91936.34;;;11.58;100.00
10518;BME280;5307;42.548;22.968;2022-12-11T04:41:03;91934.88;;;11.57;100.00
10518;BME280;5307;42.548;22.968;2022-12-11T04:43:32;91947.28;;;11.58;100.00
10518;BME280;5307;42.548;22.968;2022-12-11T04:46:00;91946.00;;;11.65;100.00
10518;BME280;5307;42.548;22.968;2022-12-11T04:48:27;91957.72;;;11.59;100.00
10518;BME280;5307;42.548;22.968;2022-12-11T04:50:54;91961.44;;;11.51;100.00
10518;BME280;5307;42.548;22.968;2022-12-11T04:53:21;91952.25;;;11.48;100.00
10518;BME280;5307;42.548;22.968;2022-12-11T04:55:49;91961.22;;;11.49;100.00
10518;BME280;5307;42.548;22.968;2022-12-11T04:58:16;91967.91;;;11.59;100.00
10518;BME280;5307;42.548;22.968;2022-12-11T05:00:43;91964.94;;;11.51;100.00
10518;BME280;5307;42.548;22.968;2022-12-11T05:03:09;91972.63;;;11.64;100.00
10518;BME280;5307;42.548;22.968;2022-12-11T05:05:36;91960.94;;;11.64;100.00
10518;BME280;5307;42.548;22.968;2022-12-11T05:08:04;91962.69;;;11.61;100.00
10518;BME280;5307;42.548;22.968;2022-12-11T05:10:30;91976.63;;;11.57;100.00
10518;BME280;5307;42.548;22.968;2022-12-11T05:12:59;91976.09;;;11.65;100.00
10518;BME280;5307;42.548;22.968;2022-12-11T05:15:26;91976.81;;;11.76;100.00
10518;BME280;5307;42.548;22.968;2022-12-11T05:17:52;91972.38;;;11.79;100.00
10518;BME280;5307;42.548;22.968;2022-12-11T05:20:19;91964.66;;;11.66;100.00
10518;BME280;5307;42.548;22.968;2022-12-11T05:22:47;91971.88;;;11.58;100.00
10518;BME280;5307;42.548;22.968;2022-12-11T05:25:14;91968.41;;;11.52;100.00
10518;BME280;5307;42.548;22.968;2022-12-11T05:27:41;91964.69;;;11.55;100.00
10518;BME280;5307;42.548;22.968;2022-12-11T05:30:10;91962.69;;;11.50;100.00
10518;BME280;5307;42.548;22.968;2022-12-11T05:32:37;91955.75;;;11.49;100.00
10518;BME280;5307;42.548;22.968;2022-12-11T05:35:09;91951.53;;;11.48;100.00
10518;BME280;5307;42.548;22.968;2022-12-11T05:37:36;91953.25;;;11.51;100.00
10518;BME280;5307;42.548;22.968;2022-12-11T05:40:03;91953.03;;;11.43;100.00
10518;BME280;5307;42.548;22.968;2022-12-11T05:42:33;91956.25;;;11.47;100.00
10518;BME280;5307;42.548;22.968;2022-12-11T05:45:00;91944.09;;;11.43;100.00
10518;BME280;5307;42.548;22.968;2022-12-11T05:47:29;91960.47;;;11.43;100.00
10518;BME280;5307;42.548;22.968;2022-12-11T05:49:56;91952.78;;;11.36;100.00
10518;BME280;5307;42.548;22.968;2022-12-11T05:52:23;91964.97;;;11.40;100.00
10518;BME280;5307;42.548;22.968;2022-12-11T05:54:50;91956.25;;;11.42;100.00
10518;BME280;5307;42.548;22.968;2022-12-11T05:57:16;91975.13;;;11.45;100.00
10518;BME280;5307;42.548;22.968;2022-12-11T05:59:43;91972.38;;;11.62;100.00
10518;BME280;5307;42.548;22.968;2022-12-11T06:02:10;91964.91;;;11.68;100.00
10518;BME280;5307;42.548;22.968;2022-12-11T06:04:38;91985.28;;;11.73;100.00
10518;BME280;5307;42.548;22.968;2022-12-11T06:07:05;91991.00;;;11.64;100.00
10518;BME280;5307;42.548;22.968;2022-12-11T06:09:32;91979.84;;;11.62;100.00
10518;BME280;5307;42.548;22.968;2022-12-11T06:11:59;92002.69;;;11.58;100.00
10518;BME280;5307;42.548;22.968;2022-12-11T06:14:26;92000.72;;;11.59;100.00
10518;BME280;5307;42.548;22.968;2022-12-11T06:16:53;92006.19;;;11.59;100.00
10518;BME280;5307;42.548;22.968;2022-12-11T06:19:19;92010.41;;;11.60;100.00
10518;BME280;5307;42.548;22.968;2022-12-11T06:21:48;91996.97;;;11.62;100.00
10518;BME280;5307;42.548;22.968;2022-12-11T06:24:15;91995.22;;;11.65;100.00
10518;BME280;5307;42.548;22.968;2022-12-11T06:26:41;91996.22;;;11.67;100.00
10518;BME280;5307;42.548;22.968;2022-12-11T06:29:08;91988.75;;;11.68;100.00
10518;BME280;5307;42.548;22.968;2022-12-11T06:31:35;91992.50;;;11.70;100.00
10518;BME280;5307;42.548;22.968;2022-12-11T06:34:02;91986.03;;;11.73;100.00
10518;BME280;5307;42.548;22.968;2022-12-11T06:36:29;91981.03;;;11.77;100.00
10518;BME280;5307;42.548;22.968;2022-12-11T06:38:57;91980.34;;;11.82;100.00
10518;BME280;5307;42.548;22.968;2022-12-11T06:41:24;91978.31;;;11.88;100.00
10518;BME280;5307;42.548;22.968;2022-12-11T06:43:50;91984.03;;;11.91;100.00
10518;BME280;5307;42.548;22.968;2022-12-11T06:46:18;91973.84;;;11.97;100.00
10518;BME280;5307;42.548;22.968;2022-12-11T06:48:46;91976.56;;;11.97;100.00
10518;BME280;5307;42.548;22.968;2022-12-11T06:51:14;91972.31;;;11.96;100.00
10518;BME280;5307;42.548;22.968;2022-12-11T06:53:42;91987.25;;;12.00;100.00
10518;BME280;5307;42.548;22.968;2022-12-11T06:56:13;91992.94;;;12.02;100.00
10518;BME280;5307;42.548;22.968;2022-12-11T06:58:41;91999.88;;;12.09;100.00
10518;BME280;5307;42.548;22.968;2022-12-11T07:01:14;92013.84;;;12.11;100.00
10518;BME280;5307;42.548;22.968;2022-12-11T07:03:41;92011.34;;;12.13;100.00
10518;BME280;5307;42.548;22.968;2022-12-11T07:06:08;92006.09;;;12.15;100.00
10518;BME280;5307;42.548;22.968;2022-12-11T07:08:35;92019.00;;;12.20;100.00
10518;BME280;5307;42.548;22.968;2022-12-11T07:11:03;92008.31;;;12.22;100.00
10518;BME280;5307;42.548;22.968;2022-12-11T07:13:32;92006.78;;;12.32;100.00
10518;BME280;5307;42.548;22.968;2022-12-11T07:16:00;91999.06;;;12.31;100.00
10518;BME280;5307;42.548;22.968;2022-12-11T07:18:29;92001.53;;;12.34;100.00
10518;BME280;5307;42.548;22.968;2022-12-11T07:20:57;92002.53;;;12.42;100.00
10518;BME280;5307;42.548;22.968;2022-12-11T07:23:25;92016.91;;;12.48;100.00
10518;BME280;5307;42.548;22.968;2022-12-11T07:25:52;92001.66;;;12.70;100.00
10518;BME280;5307;42.548;22.968;2022-12-11T07:28:19;92008.16;;;12.67;100.00
10518;BME280;5307;42.548;22.968;2022-12-11T07:30:47;91999.59;;;12.82;100.00
10518;BME280;5307;42.548;22.968;2022-12-11T07:33:14;91994.31;;;12.89;100.00
10518;BME280;5307;42.548;22.968;2022-12-11T07:35:41;91996.81;;;12.87;100.00
10518;BME280;5307;42.548;22.968;2022-12-11T07:38:08;92008.47;;;12.93;98.85
10518;BME280;5307;42.548;22.968;2022-12-11T07:40:34;91992.53;;;12.97;97.13
10518;BME280;5307;42.548;22.968;2022-12-11T07:43:02;91997.50;;;12.93;96.77
10518;BME280;5307;42.548;22.968;2022-12-11T07:45:28;92001.78;;;12.89;97.77
10518;BME280;5307;42.548;22.968;2022-12-11T07:47:56;92006.22;;;12.97;97.01
10518;BME280;5307;42.548;22.968;2022-12-11T07:50:23;92001.25;;;12.96;95.73
10518;BME280;5307;42.548;22.968;2022-12-11T07:52:50;92005.25;;;12.89;96.86
10518;BME280;5307;42.548;22.968;2022-12-11T07:55:17;92008.06;;;12.84;97.96
10518;BME280;5307;42.548;22.968;2022-12-11T07:57:44;92008.34;;;12.74;99.99
10518;BME280;5307;42.548;22.968;2022-12-11T08:00:12;92012.09;;;12.66;100.00
10518;BME280;5307;42.548;22.968;2022-12-11T08:02:39;92021.09;;;12.61;100.00
10518;BME280;5307;42.548;22.968;2022-12-11T08:05:08;92019.66;;;12.54;100.00
10518;BME280;5307;42.548;22.968;2022-12-11T08:07:35;92022.16;;;12.46;100.00
10518;BME280;5307;42.548;22.968;2022-12-11T08:10:02;92022.94;;;12.41;100.00
10518;BME280;5307;42.548;22.968;2022-12-11T08:12:36;92018.22;;;12.36;100.00
10518;BME280;5307;42.548;22.968;2022-12-11T08:15:03;92021.97;;;12.33;100.00
10518;BME280;5307;42.548;22.968;2022-12-11T08:17:30;92028.16;;;12.39;100.00
10518;BME280;5307;42.548;22.968;2022-12-11T08:19:57;92027.66;;;12.35;100.00
10518;BME280;5307;42.548;22.968;2022-12-11T08:22:25;92027.66;;;12.35;100.00
10518;BME280;5307;42.548;22.968;2022-12-11T08:24:52;92024.94;;;12.35;100.00
10518;BME280;5307;42.548;22.968;2022-12-11T08:27:19;92016.25;;;12.31;100.00
10518;BME280;5307;42.548;22.968;2022-12-11T08:29:45;92008.31;;;12.28;100.00
10518;BME280;5307;42.548;22.968;2022-12-11T08:32:12;92005.81;;;12.24;100.00
10518;BME280;5307;42.548;22.968;2022-12-11T08:34:41;92005.28;;;12.31;100.00
10518;BME280;5307;42.548;22.968;2022-12-11T08:37:08;92008.25;;;12.39;100.00
10518;BME280;5307;42.548;22.968;2022-12-11T08:39:36;92002.25;;;12.46;100.00
10518;BME280;5307;42.548;22.968;2022-12-11T08:42:03;91999.94;;;12.61;100.00
10518;BME280;5307;42.548;22.968;2022-12-11T08:44:30;91995.38;;;12.75;100.00
10518;BME280;5307;42.548;22.968;2022-12-11T08:46:57;91989.13;;;12.80;100.00
10518;BME280;5307;42.548;22.968;2022-12-11T08:49:24;91992.25;;;13.01;100.00
10518;BME280;5307;42.548;22.968;2022-12-11T08:51:51;91982.97;;;13.10;100.00
10518;BME280;5307;42.548;22.968;2022-12-11T08:54:19;91988.94;;;13.14;100.00
10518;BME280;5307;42.548;22.968;2022-12-11T08:56:47;91984.69;;;13.13;100.00
10518;BME280;5307;42.548;22.968;2022-12-11T08:59:14;91981.91;;;13.24;100.00
10518;BME280;5307;42.548;22.968;2022-12-11T09:01:40;91980.88;;;13.27;100.00
10518;BME280;5307;42.548;22.968;2022-12-11T09:04:07;91991.56;;;13.30;98.05
10518;BME280;5307;42.548;22.968;2022-12-11T09:06:34;91980.59;;;13.30;97.92
10518;BME280;5307;42.548;22.968;2022-12-11T09:09:02;91992.09;;;13.29;97.32
10518;BME280;5307;42.548;22.968;2022-12-11T09:11:31;91982.84;;;13.32;98.01
10518;BME280;5307;42.548;22.968;2022-12-11T09:14:01;91978.38;;;13.29;98.89
10518;BME280;5307;42.548;22.968;2022-12-11T09:16:28;91981.63;;;13.27;98.50
10518;BME280;5307;42.548;22.968;2022-12-11T09:18:57;91974.47;;;13.19;98.73
10518;BME280;5307;42.548;22.968;2022-12-11T09:21:26;91978.44;;;13.23;99.74
10518;BME280;5307;42.548;22.968;2022-12-11T09:23:55;91979.16;;;13.24;100.00
10518;BME280;5307;42.548;22.968;2022-12-11T09:26:22;91980.88;;;13.27;100.00
10518;BME280;5307;42.548;22.968;2022-12-11T09:28:50;91978.38;;;13.29;100.00
10518;BME280;5307;42.548;22.968;2022-12-11T09:31:20;91973.91;;;13.26;100.00
10518;BME280;5307;42.548;22.968;2022-12-11T09:33:49;91975.63;;;13.29;100.00
10518;BME280;5307;42.548;22.968;2022-12-11T09:36:16;91976.88;;;13.28;100.00
10518;BME280;5307;42.548;22.968;2022-12-11T09:38:43;91975.13;;;13.30;100.00
10518;BME280;5307;42.548;22.968;2022-12-11T09:41:31;91969.63;;;13.30;100.00
10518;BME280;5307;42.548;22.968;2022-12-11T09:44:10;91973.34;;;13.33;100.00
10518;BME280;5307;42.548;22.968;2022-12-11T09:46:42;91967.31;;;13.40;100.00
10518;BME280;5307;42.548;22.968;2022-12-11T09:49:19;91960.88;;;13.38;100.00
10518;BME280;5307;42.548;22.968;2022-12-11T09:51:50;91955.09;;;13.41;100.00
10518;BME280;5307;42.548;22.968;2022-12-11T09:54:20;91955.88;;;13.36;100.00
10518;BME280;5307;42.548;22.968;2022-12-11T09:56:50;91952.44;;;13.30;100.00
10518;BME280;5307;42.548;22.968;2022-12-11T09:59:26;91952.44;;;13.30;100.00
10518;BME280;5307;42.548;22.968;2022-12-11T10:02:02;91937.06;;;13.21;100.00
10518;BME280;5307;42.548;22.968;2022-12-11T10:04:45;91943.06;;;13.20;100.00
10518;BME280;5307;42.548;22.968;2022-12-11T10:07:23;91930.31;;;13.22;100.00
10518;BME280;5307;42.548;22.968;2022-12-11T10:10:00;91933.78;;;13.28;100.00
10518;BME280;5307;42.548;22.968;2022-12-11T10:12:36;91932.00;;;13.31;100.00
10518;BME280;5307;42.548;22.968;2022-12-11T10:15:19;91944.75;;;13.28;100.00
10518;BME280;5307;42.548;22.968;2022-12-11T10:17:53;91944.00;;;13.28;100.00
10518;BME280;5307;42.548;22.968;2022-12-11T10:20:24;91938.81;;;13.24;100.00
10518;BME280;5307;42.548;22.968;2022-12-11T10:22:53;91940.28;;;13.25;100.00
10518;BME280;5307;42.548;22.968;2022-12-11T10:25:24;91938.28;;;13.26;100.00
10518;BME280;5307;42.548;22.968;2022-12-11T10:27:52;91934.28;;;13.27;100.00
10518;BME280;5307;42.548;22.968;2022-12-11T10:30:24;91938.00;;;13.29;100.00
10518;BME280;5307;42.548;22.968;2022-12-11T10:33:01;91940.50;;;13.27;100.00
10518;BME280;5307;42.548;22.968;2022-12-11T10:35:35;91937.78;;;13.27;98.00
10518;BME280;5307;42.548;22.968;2022-12-11T10:38:14;91937.03;;;13.27;99.00
10518;BME280;5307;42.548;22.968;2022-12-11T10:40:43;91938.06;;;13.24;98.90
10518;BME280;5307;42.548;22.968;2022-12-11T10:43:10;91927.09;;;13.24;100.00
10518;BME280;5307;42.548;22.968;2022-12-11T10:45:37;91917.66;;;13.19;100.00
10518;BME280;5307;42.548;22.968;2022-12-11T10:48:09;91917.13;;;13.21;99.61
10518;BME280;5307;42.548;22.968;2022-12-11T10:50:37;91903.94;;;13.19;100.00
10518;BME280;5307;42.548;22.968;2022-12-11T10:53:19;91909.63;;;13.27;100.00
10518;BME280;5307;42.548;22.968;2022-12-11T10:55:47;91911.84;;;13.28;100.00
10518;BME280;5307;42.548;22.968;2022-12-11T10:58:16;91912.81;;;13.31;100.00
10518;BME280;5307;42.548;22.968;2022-12-11T11:00:44;91903.31;;;13.38;100.00
10518;BME280;5307;42.548;22.968;2022-12-11T11:03:21;91897.97;;;13.45;100.00
10518;BME280;5307;42.548;22.968;2022-12-11T11:05:48;91896.72;;;13.46;100.00
10518;BME280;5307;42.548;22.968;2022-12-11T11:08:17;91892.16;;;13.54;100.00
10518;BME280;5307;42.548;22.968;2022-12-11T11:10:52;91887.47;;;13.49;99.35
10518;BME280;5307;42.548;22.968;2022-12-11T11:13:21;91890.72;;;13.48;98.93
10518;BME280;5307;42.548;22.968;2022-12-11T11:15:49;91885.75;;;13.46;99.44
10518;BME280;5307;42.548;22.968;2022-12-11T11:18:24;91881.63;;;13.34;100.00
10518;BME280;5307;42.548;22.968;2022-12-11T11:20:52;91889.59;;;13.38;100.00
10518;BME280;5307;42.548;22.968;2022-12-11T11:23:20;91899.09;;;13.31;100.00
10518;BME280;5307;42.548;22.968;2022-12-11T11:25:49;91895.22;;;13.21;100.00
10518;BME280;5307;42.548;22.968;2022-12-11T11:28:19;91899.94;;;13.20;100.00
10518;BME280;5307;42.548;22.968;2022-12-11T11:30:59;91889.97;;;13.17;100.00
10518;BME280;5307;42.548;22.968;2022-12-11T11:33:30;91891.72;;;13.20;100.00
10518;BME280;5307;42.548;22.968;2022-12-11T11:35:59;91900.69;;;13.21;100.00
10518;BME280;5307;42.548;22.968;2022-12-11T11:38:29;91882.75;;;13.20;100.00
10518;BME280;5307;42.548;22.968;2022-12-11T11:41:05;91888.72;;;13.24;100.00
10518;BME280;5307;42.548;22.968;2022-12-11T11:43:42;91880.03;;;13.20;100.00
10518;BME280;5307;42.548;22.968;2022-12-11T11:46:13;91881.50;;;13.21;100.00
10518;BME280;5307;42.548;22.968;2022-12-11T11:48:49;91883.00;;;13.16;100.00
10518;BME280;5307;42.548;22.968;2022-12-11T11:51:22;91880.34;;;13.11;100.00
10518;BME280;5307;42.548;22.968;2022-12-11T11:53:51;91887.09;;;13.04;100.00
10518;BME280;5307;42.548;22.968;2022-12-11T11:56:24;91881.44;;;12.96;100.00
10518;BME280;5307;42.548;22.968;2022-12-11T11:58:58;91878.78;;;12.85;100.00
10518;BME280;5307;42.548;22.968;2022-12-11T12:01:27;91881.38;;;12.72;100.00
10518;BME280;5307;42.548;22.968;2022-12-11T12:03:56;91884.41;;;12.63;100.00
10518;BME280;5307;42.548;22.968;2022-12-11T12:06:54;91879.00;;;12.52;100.00
10518;BME280;5307;42.548;22.968;2022-12-11T12:09:40;91890.75;;;12.46;100.00
10518;BME280;5307;42.548;22.968;2022-12-11T12:12:15;91887.31;;;12.40;100.00
10518;BME280;5307;42.548;22.968;2022-12-11T12:14:54;91888.81;;;12.41;100.00
10518;BME280;5307;42.548;22.968;2022-12-11T12:17:30;91883.63;;;12.32;100.00
10518;BME280;5307;42.548;22.968;2022-12-11T12:20:12;91887.59;;;12.31;100.00
10518;BME280;5307;42.548;22.968;2022-12-11T12:22:54;91888.13;;;12.30;100.00
10518;BME280;5307;42.548;22.968;2022-12-11T12:25:27;91901.06;;;12.29;100.00
10518;BME280;5307;42.548;22.968;2022-12-11T12:28:01;91891.13;;;12.21;100.00
10518;BME280;5307;42.548;22.968;2022-12-11T12:30:39;91883.69;;;12.21;100.00
10518;BME280;5307;42.548;22.968;2022-12-11T12:33:20;91887.19;;;12.16;100.00
10518;BME280;5307;42.548;22.968;2022-12-11T12:35:58;91893.91;;;12.15;100.00
10518;BME280;5307;42.548;22.968;2022-12-11T12:38:37;91903.63;;;12.10;100.00
10518;BME280;5307;42.548;22.968;2022-12-11T12:41:13;91893.22;;;12.03;100.00
10518;BME280;5307;42.548;22.968;2022-12-11T12:43:58;91896.22;;;12.00;100.00
10518;BME280;5307;42.548;22.968;2022-12-11T12:46:41;91903.44;;;11.97;100.00
10518;BME280;5307;42.548;22.968;2022-12-11T12:49:15;91905.44;;;11.97;100.00
10518;BME280;5307;42.548;22.968;2022-12-11T12:51:46;91908.47;;;11.87;100.00
10518;BME280;5307;42.548;22.968;2022-12-11T12:54:16;91904.47;;;11.77;100.00
10518;BME280;5307;42.548;22.968;2022-12-11T12:56:45;91908.69;;;11.78;100.00
10518;BME280;5307;42.548;22.968;2022-12-11T12:59:21;91918.66;;;11.76;100.00
10518;BME280;5307;42.548;22.968;2022-12-11T13:01:49;91913.19;;;11.76;100.00
10518;BME280;5307;42.548;22.968;2022-12-11T13:04:35;91919.63;;;11.78;100.00
10518;BME280;5307;42.548;22.968;2022-12-11T13:07:16;91908.47;;;11.76;100.00
10518;BME280;5307;42.548;22.968;2022-12-11T13:09:55;91921.91;;;11.63;100.00
10518;BME280;5307;42.548;22.968;2022-12-11T13:12:32;91919.16;;;11.74;100.00